sensor_id;sensor_type;location;lat;lon;timestamp;P1;durP1;ratioP1;P2;durP2;ratioP2
27161;SDS011;54464;50.558;9.704;2023-02-05T00:01:13;7.40;;;6.40;;
27161;SDS011;54464;50.558;9.704;2023-02-05T00:03:39;9.73;;;6.57;;
27161;SDS011;54464;50.558;9.704;2023-02-05T00:06:06;10.63;;;7.43;;
27161;SDS011;54464;50.558;9.704;2023-02-05T00:08:33;9.70;;;7.37;;
27161;SDS011;54464;50.558;9.704;2023-02-05T00:10:59;8.87;;;7.17;;
27161;SDS011;54464;50.558;9.704;2023-02-05T00:13:33;10.73;;;7.90;;
27161;SDS011;54464;50.558;9.704;2023-02-05T00:16:00;9.53;;;7.93;;
27161;SDS011;54464;50.558;9.704;2023-02-05T00:18:33;10.33;;;7.77;;
27161;SDS011;54464;50.558;9.704;2023-02-05T00:20:59;7.97;;;6.90;;
27161;SDS011;54464;50.558;9.704;2023-02-05T00:23:25;9.03;;;7.53;;
27161;SDS011;54464;50.558;9.704;2023-02-05T00:25:51;8.87;;;7.60;;
27161;SDS011;54464;50.558;9.704;2023-02-05T00:28:16;9.63;;;7.80;;
27161;SDS011;54464;50.558;9.704;2023-02-05T00:30:42;10.60;;;7.87;;
27161;SDS011;54464;50.558;9.704;2023-02-05T00:33:08;11.87;;;8.73;;
27161;SDS011;54464;50.558;9.704;2023-02-05T00:35:34;11.87;;;8.97;;
27161;SDS011;54464;50.558;9.704;2023-02-05T00:38:00;13.10;;;8.57;;
27161;SDS011;54464;50.558;9.704;2023-02-05T00:40:25;11.17;;;8.67;;
27161;SDS011;54464;50.558;9.704;2023-02-05T00:42:51;11.40;;;9.17;;
27161;SDS011;54464;50.558;9.704;2023-02-05T00:45:17;12.17;;;9.03;;
27161;SDS011;54464;50.558;9.704;2023-02-05T00:47:43;11.27;;;9.13;;
27161;SDS011;54464;50.558;9.704;2023-02-05T00:50:09;12.60;;;9.73;;
27161;SDS011;54464;50.558;9.704;2023-02-05T00:52:34;12.83;;;9.47;;
27161;SDS011;54464;50.558;9.704;2023-02-05T00:55:00;10.57;;;9.10;;
27161;SDS011;54464;50.558;9.704;2023-02-05T00:57:26;11.40;;;8.80;;
27161;SDS011;54464;50.558;9.704;2023-02-05T00:59:51;12.83;;;9.00;;
27161;SDS011;54464;50.558;9.704;2023-02-05T01:02:18;8.90;;;7.93;;
27161;SDS011;54464;50.558;9.704;2023-02-05T01:04:51;10.80;;;8.17;;
27161;SDS011;54464;50.558;9.704;2023-02-05T01:07:18;9.07;;;7.30;;
27161;SDS011;54464;50.558;9.704;2023-02-05T01:09:44;10.30;;;7.43;;
27161;SDS011;54464;50.558;9.704;2023-02-05T01:12:09;9.50;;;7.47;;
27161;SDS011;54464;50.558;9.704;2023-02-05T01:14:35;9.40;;;7.17;;
27161;SDS011;54464;50.558;9.704;2023-02-05T01:17:01;8.87;;;6.83;;
27161;SDS011;54464;50.558;9.704;2023-02-05T01:19:26;7.70;;;6.47;;
27161;SDS011;54464;50.558;9.704;2023-02-05T01:21:52;7.93;;;6.37;;
27161;SDS011;54464;50.558;9.704;2023-02-05T01:24:18;7.87;;;5.93;;
27161;SDS011;54464;50.558;9.704;2023-02-05T01:26:44;9.63;;;7.00;;
27161;SDS011;54464;50.558;9.704;2023-02-05T01:29:09;8.73;;;7.40;;
27161;SDS011;54464;50.558;9.704;2023-02-05T01:31:35;9.70;;;7.07;;
27161;SDS011;54464;50.558;9.704;2023-02-05T01:34:01;11.00;;;7.70;;
27161;SDS011;54464;50.558;9.704;2023-02-05T01:36:26;11.07;;;8.50;;
27161;SDS011;54464;50.558;9.704;2023-02-05T01:38:52;9.60;;;8.57;;
27161;SDS011;54464;50.558;9.704;2023-02-05T01:41:18;8.80;;;7.10;;
27161;SDS011;54464;50.558;9.704;2023-02-05T01:44:03;7.77;;;6.43;;
27161;SDS011;54464;50.558;9.704;2023-02-05T01:46:29;9.43;;;6.87;;
27161;SDS011;54464;50.558;9.704;2023-02-05T01:48:56;9.23;;;6.60;;
27161;SDS011;54464;50.558;9.704;2023-02-05T01:51:23;8.57;;;5.97;;
27161;SDS011;54464;50.558;9.704;2023-02-05T01:53:50;7.97;;;6.13;;
27161;SDS011;54464;50.558;9.704;2023-02-05T01:56:20;6.87;;;5.93;;
27161;SDS011;54464;50.558;9.704;2023-02-05T01:58:53;8.37;;;6.03;;
27161;SDS011;54464;50.558;9.704;2023-02-05T02:01:24;7.03;;;6.30;;
27161;SDS011;54464;50.558;9.704;2023-02-05T02:03:52;7.83;;;6.23;;
27161;SDS011;54464;50.558;9.704;2023-02-05T02:06:20;7.77;;;6.10;;
27161;SDS011;54464;50.558;9.704;2023-02-05T02:08:45;8.07;;;6.33;;
27161;SDS011;54464;50.558;9.704;2023-02-05T02:11:12;7.70;;;6.13;;
27161;SDS011;54464;50.558;9.704;2023-02-05T02:13:41;6.73;;;4.93;;
27161;SDS011;54464;50.558;9.704;2023-02-05T02:16:09;5.43;;;4.40;;
27161;SDS011;54464;50.558;9.704;2023-02-05T02:18:35;5.50;;;4.40;;
27161;SDS011;54464;50.558;9.704;2023-02-05T02:21:12;5.30;;;3.50;;
27161;SDS011;54464;50.558;9.704;2023-02-05T02:29:16;4.27;;;3.33;;
27161;SDS011;54464;50.558;9.704;2023-02-05T02:31:50;4.60;;;3.40;;
27161;SDS011;54464;50.558;9.704;2023-02-05T02:34:26;5.30;;;3.53;;
27161;SDS011;54464;50.558;9.704;2023-02-05T02:37:06;3.67;;;3.23;;
27161;SDS011;54464;50.558;9.704;2023-02-05T02:39:37;4.27;;;3.30;;
27161;SDS011;54464;50.558;9.704;2023-02-05T02:42:28;3.40;;;2.90;;
27161;SDS011;54464;50.558;9.704;2023-02-05T02:44:59;3.67;;;3.30;;
27161;SDS011;54464;50.558;9.704;2023-02-05T02:47:36;3.33;;;2.60;;
27161;SDS011;54464;50.558;9.704;2023-02-05T02:50:20;3.40;;;2.60;;
27161;SDS011;54464;50.558;9.704;2023-02-05T02:52:47;3.07;;;2.77;;
27161;SDS011;54464;50.558;9.704;2023-02-05T02:55:16;2.60;;;2.40;;
27161;SDS011;54464;50.558;9.704;2023-02-05T02:57:45;2.80;;;2.57;;
27161;SDS011;54464;50.558;9.704;2023-02-05T03:00:14;2.60;;;2.40;;
27161;SDS011;54464;50.558;9.704;2023-02-05T03:02:44;3.53;;;2.50;;
27161;SDS011;54464;50.558;9.704;2023-02-05T03:05:16;2.37;;;2.17;;
27161;SDS011;54464;50.558;9.704;2023-02-05T03:07:46;3.97;;;2.63;;
27161;SDS011;54464;50.558;9.704;2023-02-05T03:10:22;2.70;;;2.50;;
27161;SDS011;54464;50.558;9.704;2023-02-05T03:13:08;2.83;;;2.20;;
27161;SDS011;54464;50.558;9.704;2023-02-05T03:15:36;3.70;;;2.77;;
27161;SDS011;54464;50.558;9.704;2023-02-05T03:18:04;2.50;;;2.00;;
27161;SDS011;54464;50.558;9.704;2023-02-05T03:20:31;2.20;;;1.97;;
27161;SDS011;54464;50.558;9.704;2023-02-05T03:23:01;3.17;;;2.17;;
27161;SDS011;54464;50.558;9.704;2023-02-05T03:25:27;2.10;;;1.90;;
27161;SDS011;54464;50.558;9.704;2023-02-05T03:27:54;2.10;;;1.90;;
27161;SDS011;54464;50.558;9.704;2023-02-05T03:30:20;2.13;;;1.93;;
27161;SDS011;54464;50.558;9.704;2023-02-05T03:32:54;1.77;;;1.67;;
27161;SDS011;54464;50.558;9.704;2023-02-05T03:35:45;2.50;;;1.90;;
27161;SDS011;54464;50.558;9.704;2023-02-05T03:40:54;2.20;;;2.00;;
27161;SDS011;54464;50.558;9.704;2023-02-05T03:46:32;3.50;;;2.30;;
27161;SDS011;54464;50.558;9.704;2023-02-05T03:49:20;3.30;;;2.60;;
27161;SDS011;54464;50.558;9.704;2023-02-05T03:51:58;2.63;;;2.10;;
27161;SDS011;54464;50.558;9.704;2023-02-05T03:59:26;2.97;;;2.47;;
27161;SDS011;54464;50.558;9.704;2023-02-05T04:01:54;2.50;;;2.07;;
27161;SDS011;54464;50.558;9.704;2023-02-05T04:04:21;2.43;;;2.23;;
27161;SDS011;54464;50.558;9.704;2023-02-05T04:06:47;2.43;;;2.23;;
27161;SDS011;54464;50.558;9.704;2023-02-05T04:09:15;3.27;;;2.47;;
27161;SDS011;54464;50.558;9.704;2023-02-05T04:11:40;2.43;;;2.23;;
27161;SDS011;54464;50.558;9.704;2023-02-05T04:14:06;2.40;;;2.20;;
27161;SDS011;54464;50.558;9.704;2023-02-05T04:16:32;2.83;;;2.37;;
27161;SDS011;54464;50.558;9.704;2023-02-05T04:18:58;2.47;;;2.27;;
27161;SDS011;54464;50.558;9.704;2023-02-05T04:21:23;3.80;;;2.30;;
27161;SDS011;54464;50.558;9.704;2023-02-05T04:23:49;2.53;;;2.33;;
27161;SDS011;54464;50.558;9.704;2023-02-05T04:26:14;2.33;;;2.13;;
27161;SDS011;54464;50.558;9.704;2023-02-05T04:28:40;2.20;;;2.00;;
27161;SDS011;54464;50.558;9.704;2023-02-05T04:31:09;2.57;;;2.13;;
27161;SDS011;54464;50.558;9.704;2023-02-05T04:33:36;2.27;;;2.00;;
27161;SDS011;54464;50.558;9.704;2023-02-05T04:36:02;2.87;;;2.33;;
27161;SDS011;54464;50.558;9.704;2023-02-05T04:38:29;1.90;;;1.73;;
27161;SDS011;54464;50.558;9.704;2023-02-05T04:40:54;2.30;;;2.03;;
27161;SDS011;54464;50.558;9.704;2023-02-05T04:43:20;2.10;;;1.90;;
27161;SDS011;54464;50.558;9.704;2023-02-05T04:45:46;2.37;;;2.17;;
27161;SDS011;54464;50.558;9.704;2023-02-05T04:48:12;2.70;;;2.33;;
27161;SDS011;54464;50.558;9.704;2023-02-05T04:50:38;2.13;;;1.93;;
27161;SDS011;54464;50.558;9.704;2023-02-05T04:53:04;3.67;;;2.50;;
27161;SDS011;54464;50.558;9.704;2023-02-05T04:55:30;2.57;;;2.37;;
27161;SDS011;54464;50.558;9.704;2023-02-05T04:57:56;2.37;;;2.17;;
27161;SDS011;54464;50.558;9.704;2023-02-05T05:00:22;2.50;;;2.30;;
27161;SDS011;54464;50.558;9.704;2023-02-05T05:02:47;2.87;;;2.37;;
27161;SDS011;54464;50.558;9.704;2023-02-05T05:05:13;2.90;;;2.50;;
27161;SDS011;54464;50.558;9.704;2023-02-05T05:07:39;2.43;;;2.10;;
27161;SDS011;54464;50.558;9.704;2023-02-05T05:10:05;2.60;;;2.40;;
27161;SDS011;54464;50.558;9.704;2023-02-05T05:12:32;2.57;;;2.37;;
27161;SDS011;54464;50.558;9.704;2023-02-05T05:14:58;2.93;;;2.40;;
27161;SDS011;54464;50.558;9.704;2023-02-05T05:17:24;2.70;;;2.50;;
27161;SDS011;54464;50.558;9.704;2023-02-05T05:19:50;2.73;;;2.53;;
27161;SDS011;54464;50.558;9.704;2023-02-05T05:22:15;2.70;;;2.50;;
27161;SDS011;54464;50.558;9.704;2023-02-05T05:24:41;3.13;;;2.60;;
27161;SDS011;54464;50.558;9.704;2023-02-05T05:27:06;2.83;;;2.40;;
27161;SDS011;54464;50.558;9.704;2023-02-05T05:29:32;3.13;;;2.43;;
27161;SDS011;54464;50.558;9.704;2023-02-05T05:31:58;2.50;;;2.30;;
27161;SDS011;54464;50.558;9.704;2023-02-05T05:34:24;4.47;;;2.93;;
27161;SDS011;54464;50.558;9.704;2023-02-05T05:36:50;2.60;;;2.40;;
27161;SDS011;54464;50.558;9.704;2023-02-05T05:39:15;2.63;;;2.20;;
27161;SDS011;54464;50.558;9.704;2023-02-05T05:42:00;2.83;;;2.23;;
27161;SDS011;54464;50.558;9.704;2023-02-05T05:44:51;2.23;;;2.03;;
27161;SDS011;54464;50.558;9.704;2023-02-05T05:47:17;2.63;;;2.20;;
27161;SDS011;54464;50.558;9.704;2023-02-05T05:49:43;1.97;;;1.80;;
27161;SDS011;54464;50.558;9.704;2023-02-05T05:52:09;3.27;;;2.10;;
27161;SDS011;54464;50.558;9.704;2023-02-05T05:54:35;2.27;;;1.90;;
27161;SDS011;54464;50.558;9.704;2023-02-05T05:57:02;2.23;;;1.80;;
27161;SDS011;54464;50.558;9.704;2023-02-05T05:59:28;2.23;;;1.97;;
27161;SDS011;54464;50.558;9.704;2023-02-05T06:01:54;2.90;;;2.20;;
27161;SDS011;54464;50.558;9.704;2023-02-05T06:04:19;2.27;;;2.00;;
27161;SDS011;54464;50.558;9.704;2023-02-05T06:06:45;3.03;;;2.27;;
27161;SDS011;54464;50.558;9.704;2023-02-05T06:09:11;3.00;;;2.50;;
27161;SDS011;54464;50.558;9.704;2023-02-05T06:11:37;4.23;;;2.67;;
27161;SDS011;54464;50.558;9.704;2023-02-05T06:14:03;2.47;;;2.27;;
27161;SDS011;54464;50.558;9.704;2023-02-05T06:16:28;3.23;;;2.37;;
27161;SDS011;54464;50.558;9.704;2023-02-05T06:18:54;2.77;;;2.33;;
27161;SDS011;54464;50.558;9.704;2023-02-05T06:21:20;3.70;;;2.60;;
27161;SDS011;54464;50.558;9.704;2023-02-05T06:23:45;3.30;;;2.43;;
27161;SDS011;54464;50.558;9.704;2023-02-05T06:26:11;2.53;;;2.33;;
27161;SDS011;54464;50.558;9.704;2023-02-05T06:28:37;3.50;;;2.50;;
27161;SDS011;54464;50.558;9.704;2023-02-05T06:31:03;2.50;;;2.30;;
27161;SDS011;54464;50.558;9.704;2023-02-05T06:33:28;2.80;;;2.60;;
27161;SDS011;54464;50.558;9.704;2023-02-05T06:35:54;2.57;;;2.37;;
27161;SDS011;54464;50.558;9.704;2023-02-05T06:38:20;3.90;;;2.97;;
27161;SDS011;54464;50.558;9.704;2023-02-05T06:40:46;3.83;;;3.20;;
27161;SDS011;54464;50.558;9.704;2023-02-05T06:43:12;4.50;;;3.40;;
27161;SDS011;54464;50.558;9.704;2023-02-05T06:45:38;2.80;;;2.40;;
27161;SDS011;54464;50.558;9.704;2023-02-05T06:48:04;3.00;;;2.57;;
27161;SDS011;54464;50.558;9.704;2023-02-05T06:50:30;2.87;;;2.50;;
27161;SDS011;54464;50.558;9.704;2023-02-05T06:52:55;2.47;;;2.17;;
27161;SDS011;54464;50.558;9.704;2023-02-05T06:55:21;2.80;;;2.33;;
27161;SDS011;54464;50.558;9.704;2023-02-05T06:57:47;3.13;;;2.50;;
27161;SDS011;54464;50.558;9.704;2023-02-05T07:00:14;3.30;;;2.60;;
27161;SDS011;54464;50.558;9.704;2023-02-05T07:02:40;3.20;;;2.90;;
27161;SDS011;54464;50.558;9.704;2023-02-05T07:05:06;3.10;;;2.80;;
27161;SDS011;54464;50.558;9.704;2023-02-05T07:07:32;3.87;;;2.70;;
27161;SDS011;54464;50.558;9.704;2023-02-05T07:09:58;2.50;;;2.30;;
27161;SDS011;54464;50.558;9.704;2023-02-05T07:12:25;2.83;;;2.57;;
27161;SDS011;54464;50.558;9.704;2023-02-05T07:14:51;2.50;;;2.30;;
27161;SDS011;54464;50.558;9.704;2023-02-05T07:17:16;3.23;;;2.40;;
27161;SDS011;54464;50.558;9.704;2023-02-05T07:19:42;2.40;;;2.20;;
27161;SDS011;54464;50.558;9.704;2023-02-05T07:22:07;3.07;;;2.40;;
27161;SDS011;54464;50.558;9.704;2023-02-05T07:24:34;2.97;;;2.47;;
27161;SDS011;54464;50.558;9.704;2023-02-05T07:27:00;5.37;;;3.27;;
27161;SDS011;54464;50.558;9.704;2023-02-05T07:29:26;4.17;;;3.40;;
27161;SDS011;54464;50.558;9.704;2023-02-05T07:31:52;4.00;;;3.00;;
27161;SDS011;54464;50.558;9.704;2023-02-05T07:34:18;3.13;;;2.20;;
27161;SDS011;54464;50.558;9.704;2023-02-05T07:36:43;3.23;;;2.93;;
27161;SDS011;54464;50.558;9.704;2023-02-05T07:39:09;2.87;;;2.57;;
27161;SDS011;54464;50.558;9.704;2023-02-05T07:41:35;3.83;;;3.03;;
27161;SDS011;54464;50.558;9.704;2023-02-05T07:44:00;2.93;;;2.63;;
27161;SDS011;54464;50.558;9.704;2023-02-05T07:46:26;3.53;;;3.20;;
27161;SDS011;54464;50.558;9.704;2023-02-05T07:48:52;3.13;;;2.83;;
27161;SDS011;54464;50.558;9.704;2023-02-05T07:51:20;2.80;;;2.53;;
27161;SDS011;54464;50.558;9.704;2023-02-05T07:53:48;2.60;;;2.40;;
27161;SDS011;54464;50.558;9.704;2023-02-05T07:56:14;3.23;;;2.90;;
27161;SDS011;54464;50.558;9.704;2023-02-05T07:58:41;3.60;;;3.30;;
27161;SDS011;54464;50.558;9.704;2023-02-05T08:01:07;2.97;;;2.60;;
27161;SDS011;54464;50.558;9.704;2023-02-05T08:03:32;3.97;;;3.30;;
27161;SDS011;54464;50.558;9.704;2023-02-05T08:06:02;3.63;;;3.33;;
27161;SDS011;54464;50.558;9.704;2023-02-05T08:08:30;3.50;;;3.20;;
27161;SDS011;54464;50.558;9.704;2023-02-05T08:10:57;4.10;;;3.70;;
27161;SDS011;54464;50.558;9.704;2023-02-05T08:13:25;4.50;;;4.00;;
27161;SDS011;54464;50.558;9.704;2023-02-05T08:15:51;5.63;;;5.00;;
27161;SDS011;54464;50.558;9.704;2023-02-05T08:18:16;4.67;;;4.20;;
27161;SDS011;54464;50.558;9.704;2023-02-05T08:20:43;3.40;;;3.10;;
27161;SDS011;54464;50.558;9.704;2023-02-05T08:23:09;5.30;;;4.77;;
27161;SDS011;54464;50.558;9.704;2023-02-05T08:25:34;7.77;;;7.00;;
27161;SDS011;54464;50.558;9.704;2023-02-05T08:28:00;7.50;;;6.80;;
27161;SDS011;54464;50.558;9.704;2023-02-05T08:30:26;8.67;;;7.87;;
27161;SDS011;54464;50.558;9.704;2023-02-05T08:32:51;7.67;;;6.80;;
27161;SDS011;54464;50.558;9.704;2023-02-05T08:35:17;8.40;;;7.43;;
27161;SDS011;54464;50.558;9.704;2023-02-05T08:37:43;12.53;;;9.00;;
27161;SDS011;54464;50.558;9.704;2023-02-05T08:40:09;13.97;;;11.20;;
27161;SDS011;54464;50.558;9.704;2023-02-05T08:42:35;8.97;;;7.47;;
27161;SDS011;54464;50.558;9.704;2023-02-05T08:45:01;9.37;;;6.87;;
27161;SDS011;54464;50.558;9.704;2023-02-05T08:47:27;9.23;;;8.27;;
27161;SDS011;54464;50.558;9.704;2023-02-05T08:49:53;7.60;;;6.83;;
27161;SDS011;54464;50.558;9.704;2023-02-05T08:52:19;9.50;;;8.00;;
27161;SDS011;54464;50.558;9.704;2023-02-05T08:54:44;9.43;;;7.30;;
27161;SDS011;54464;50.558;9.704;2023-02-05T08:57:12;8.57;;;7.40;;
27161;SDS011;54464;50.558;9.704;2023-02-05T08:59:37;9.13;;;7.47;;
27161;SDS011;54464;50.558;9.704;2023-02-05T09:02:03;6.60;;;5.60;;
27161;SDS011;54464;50.558;9.704;2023-02-05T09:04:29;8.43;;;7.27;;
27161;SDS011;54464;50.558;9.704;2023-02-05T09:06:55;7.03;;;5.63;;
27161;SDS011;54464;50.558;9.704;2023-02-05T09:09:21;9.70;;;8.40;;
27161;SDS011;54464;50.558;9.704;2023-02-05T09:11:46;8.17;;;6.80;;
27161;SDS011;54464;50.558;9.704;2023-02-05T09:14:13;6.10;;;5.10;;
27161;SDS011;54464;50.558;9.704;2023-02-05T09:16:39;7.53;;;5.77;;
27161;SDS011;54464;50.558;9.704;2023-02-05T09:19:05;7.83;;;5.87;;
27161;SDS011;54464;50.558;9.704;2023-02-05T09:21:31;8.93;;;6.87;;
27161;SDS011;54464;50.558;9.704;2023-02-05T09:23:57;8.87;;;7.80;;
27161;SDS011;54464;50.558;9.704;2023-02-05T09:26:23;7.60;;;5.73;;
27161;SDS011;54464;50.558;9.704;2023-02-05T09:28:49;10.20;;;8.13;;
27161;SDS011;54464;50.558;9.704;2023-02-05T09:31:16;10.23;;;8.80;;
27161;SDS011;54464;50.558;9.704;2023-02-05T09:33:43;11.67;;;8.53;;
27161;SDS011;54464;50.558;9.704;2023-02-05T09:36:13;13.17;;;9.83;;
27161;SDS011;54464;50.558;9.704;2023-02-05T09:38:41;10.50;;;8.37;;
27161;SDS011;54464;50.558;9.704;2023-02-05T09:46:20;13.13;;;9.37;;
27161;SDS011;54464;50.558;9.704;2023-02-05T09:51:31;9.67;;;8.63;;
27161;SDS011;54464;50.558;9.704;2023-02-05T09:54:47;10.63;;;7.07;;
27161;SDS011;54464;50.558;9.704;2023-02-05T09:57:15;9.90;;;7.13;;
27161;SDS011;54464;50.558;9.704;2023-02-05T09:59:48;10.53;;;8.70;;
27161;SDS011;54464;50.558;9.704;2023-02-05T10:02:21;9.20;;;8.30;;
27161;SDS011;54464;50.558;9.704;2023-02-05T10:05:14;11.53;;;8.77;;
27161;SDS011;54464;50.558;9.704;2023-02-05T10:10:30;11.90;;;7.70;;
27161;SDS011;54464;50.558;9.704;2023-02-05T10:13:19;8.53;;;7.13;;
27161;SDS011;54464;50.558;9.704;2023-02-05T10:27:19;9.87;;;8.17;;
27161;SDS011;54464;50.558;9.704;2023-02-05T10:32:19;11.97;;;9.50;;
27161;SDS011;54464;50.558;9.704;2023-02-05T10:34:56;10.80;;;8.80;;
27161;SDS011;54464;50.558;9.704;2023-02-05T10:37:34;9.40;;;5.70;;
27161;SDS011;54464;50.558;9.704;2023-02-05T10:40:12;10.77;;;7.80;;
27161;SDS011;54464;50.558;9.704;2023-02-05T10:42:44;13.43;;;9.20;;
27161;SDS011;54464;50.558;9.704;2023-02-05T10:45:16;11.53;;;9.43;;
27161;SDS011;54464;50.558;9.704;2023-02-05T10:52:49;10.97;;;8.40;;
27161;SDS011;54464;50.558;9.704;2023-02-05T10:55:15;11.43;;;8.63;;
27161;SDS011;54464;50.558;9.704;2023-02-05T10:57:41;10.93;;;7.83;;
27161;SDS011;54464;50.558;9.704;2023-02-05T11:00:17;13.27;;;9.13;;
27161;SDS011;54464;50.558;9.704;2023-02-05T11:02:49;11.03;;;9.17;;
27161;SDS011;54464;50.558;9.704;2023-02-05T11:05:23;11.50;;;8.20;;
27161;SDS011;54464;50.558;9.704;2023-02-05T11:08:03;10.03;;;7.70;;
27161;SDS011;54464;50.558;9.704;2023-02-05T11:10:30;11.77;;;7.23;;
27161;SDS011;54464;50.558;9.704;2023-02-05T11:13:01;11.37;;;7.90;;
27161;SDS011;54464;50.558;9.704;2023-02-05T11:15:38;10.00;;;8.63;;
27161;SDS011;54464;50.558;9.704;2023-02-05T11:18:38;11.27;;;8.43;;
27161;SDS011;54464;50.558;9.704;2023-02-05T11:21:07;11.23;;;8.63;;
27161;SDS011;54464;50.558;9.704;2023-02-05T11:23:34;11.47;;;9.37;;
27161;SDS011;54464;50.558;9.704;2023-02-05T11:26:09;10.20;;;8.60;;
27161;SDS011;54464;50.558;9.704;2023-02-05T11:28:45;11.70;;;9.70;;
27161;SDS011;54464;50.558;9.704;2023-02-05T11:31:24;11.33;;;8.80;;
27161;SDS011;54464;50.558;9.704;2023-02-05T11:33:51;12.80;;;8.40;;
27161;SDS011;54464;50.558;9.704;2023-02-05T11:36:33;12.00;;;9.77;;
27161;SDS011;54464;50.558;9.704;2023-02-05T11:39:01;11.20;;;8.77;;
27161;SDS011;54464;50.558;9.704;2023-02-05T11:41:30;13.53;;;10.13;;
27161;SDS011;54464;50.558;9.704;2023-02-05T11:44:13;17.60;;;11.53;;
27161;SDS011;54464;50.558;9.704;2023-02-05T11:47:01;17.07;;;11.43;;
27161;SDS011;54464;50.558;9.704;2023-02-05T11:49:34;14.30;;;10.33;;
27161;SDS011;54464;50.558;9.704;2023-02-05T11:52:09;16.77;;;12.90;;
27161;SDS011;54464;50.558;9.704;2023-02-05T11:54:37;12.90;;;10.67;;
27161;SDS011;54464;50.558;9.704;2023-02-05T11:59:53;15.40;;;11.63;;
27161;SDS011;54464;50.558;9.704;2023-02-05T12:04:50;13.13;;;10.67;;
27161;SDS011;54464;50.558;9.704;2023-02-05T12:07:27;11.30;;;9.40;;
27161;SDS011;54464;50.558;9.704;2023-02-05T12:09:58;14.30;;;10.43;;
27161;SDS011;54464;50.558;9.704;2023-02-05T12:20:50;18.63;;;14.03;;
27161;SDS011;54464;50.558;9.704;2023-02-05T12:48:49;17.67;;;14.00;;
27161;SDS011;54464;50.558;9.704;2023-02-05T12:54:28;21.03;;;16.10;;
27161;SDS011;54464;50.558;9.704;2023-02-05T12:56:51;19.47;;;15.53;;
27161;SDS011;54464;50.558;9.704;2023-02-05T13:07:48;17.33;;;14.30;;
27161;SDS011;54464;50.558;9.704;2023-02-05T13:10:21;16.93;;;12.80;;
27161;SDS011;54464;50.558;9.704;2023-02-05T13:13:09;15.60;;;11.60;;
27161;SDS011;54464;50.558;9.704;2023-02-05T13:15:40;12.80;;;10.60;;
27161;SDS011;54464;50.558;9.704;2023-02-05T13:18:13;14.87;;;11.27;;
27161;SDS011;54464;50.558;9.704;2023-02-05T13:20:54;11.97;;;10.27;;
27161;SDS011;54464;50.558;9.704;2023-02-05T13:23:41;10.67;;;9.57;;
27161;SDS011;54464;50.558;9.704;2023-02-05T13:26:39;14.73;;;11.60;;
27161;SDS011;54464;50.558;9.704;2023-02-05T13:29:27;16.97;;;13.50;;
27161;SDS011;54464;50.558;9.704;2023-02-05T13:31:59;16.00;;;13.30;;
27161;SDS011;54464;50.558;9.704;2023-02-05T13:34:28;17.07;;;13.90;;
27161;SDS011;54464;50.558;9.704;2023-02-05T13:56:46;17.30;;;13.17;;
27161;SDS011;54464;50.558;9.704;2023-02-05T14:01:59;17.27;;;14.97;;
27161;SDS011;54464;50.558;9.704;2023-02-05T14:04:27;19.47;;;15.87;;
27161;SDS011;54464;50.558;9.704;2023-02-05T14:07:05;18.60;;;15.23;;
27161;SDS011;54464;50.558;9.704;2023-02-05T14:09:37;17.73;;;14.27;;
27161;SDS011;54464;50.558;9.704;2023-02-05T14:12:07;17.93;;;14.73;;
27161;SDS011;54464;50.558;9.704;2023-02-05T14:14:45;18.83;;;16.07;;
27161;SDS011;54464;50.558;9.704;2023-02-05T14:22:49;19.53;;;16.00;;
27161;SDS011;54464;50.558;9.704;2023-02-05T14:33:37;29.13;;;20.80;;
27161;SDS011;54464;50.558;9.704;2023-02-05T14:43:56;32.17;;;23.27;;
27161;SDS011;54464;50.558;9.704;2023-02-05T14:46:30;25.37;;;19.50;;
27161;SDS011;54464;50.558;9.704;2023-02-05T14:49:22;23.23;;;18.47;;
27161;SDS011;54464;50.558;9.704;2023-02-05T14:51:51;39.97;;;33.13;;
27161;SDS011;54464;50.558;9.704;2023-02-05T14:54:25;31.03;;;23.90;;
27161;SDS011;54464;50.558;9.704;2023-02-05T14:59:56;26.23;;;22.40;;
27161;SDS011;54464;50.558;9.704;2023-02-05T15:05:24;26.53;;;20.53;;
27161;SDS011;54464;50.558;9.704;2023-02-05T15:08:39;24.50;;;19.70;;
27161;SDS011;54464;50.558;9.704;2023-02-05T15:11:11;27.07;;;18.87;;
27161;SDS011;54464;50.558;9.704;2023-02-05T15:16:46;32.40;;;24.63;;
27161;SDS011;54464;50.558;9.704;2023-02-05T15:19:13;30.47;;;21.90;;
27161;SDS011;54464;50.558;9.704;2023-02-05T15:21:50;38.37;;;25.50;;
27161;SDS011;54464;50.558;9.704;2023-02-05T15:24:21;33.80;;;24.70;;
27161;SDS011;54464;50.558;9.704;2023-02-05T15:27:01;27.63;;;19.13;;
27161;SDS011;54464;50.558;9.704;2023-02-05T15:32:02;24.90;;;19.13;;
27161;SDS011;54464;50.558;9.704;2023-02-05T15:34:43;28.07;;;21.90;;
27161;SDS011;54464;50.558;9.704;2023-02-05T15:37:37;28.03;;;20.97;;
27161;SDS011;54464;50.558;9.704;2023-02-05T15:42:37;24.97;;;20.17;;
27161;SDS011;54464;50.558;9.704;2023-02-05T15:45:15;30.97;;;21.90;;
27161;SDS011;54464;50.558;9.704;2023-02-05T15:48:05;32.10;;;22.63;;
27161;SDS011;54464;50.558;9.704;2023-02-05T15:50:31;27.63;;;21.80;;
27161;SDS011;54464;50.558;9.704;2023-02-05T15:53:00;28.00;;;20.60;;
27161;SDS011;54464;50.558;9.704;2023-02-05T15:55:27;25.43;;;19.67;;
27161;SDS011;54464;50.558;9.704;2023-02-05T15:58:02;27.67;;;21.33;;
27161;SDS011;54464;50.558;9.704;2023-02-05T16:00:30;26.17;;;19.47;;
27161;SDS011;54464;50.558;9.704;2023-02-05T16:02:59;25.83;;;18.73;;
27161;SDS011;54464;50.558;9.704;2023-02-05T16:05:27;31.83;;;21.83;;
27161;SDS011;54464;50.558;9.704;2023-02-05T16:07:55;33.93;;;24.60;;
27161;SDS011;54464;50.558;9.704;2023-02-05T16:12:59;36.53;;;25.90;;
27161;SDS011;54464;50.558;9.704;2023-02-05T16:15:27;31.73;;;22.23;;
27161;SDS011;54464;50.558;9.704;2023-02-05T16:18:18;33.67;;;24.40;;
27161;SDS011;54464;50.558;9.704;2023-02-05T16:20:57;37.70;;;27.30;;
27161;SDS011;54464;50.558;9.704;2023-02-05T16:26:15;31.53;;;23.43;;
27161;SDS011;54464;50.558;9.704;2023-02-05T16:28:51;29.57;;;22.17;;
27161;SDS011;54464;50.558;9.704;2023-02-05T16:31:22;31.97;;;21.50;;
27161;SDS011;54464;50.558;9.704;2023-02-05T16:34:35;29.60;;;20.13;;
27161;SDS011;54464;50.558;9.704;2023-02-05T16:36:43;32.73;;;21.90;;
27161;SDS011;54464;50.558;9.704;2023-02-05T16:39:17;34.37;;;24.23;;
27161;SDS011;54464;50.558;9.704;2023-02-05T16:41:59;33.43;;;23.73;;
27161;SDS011;54464;50.558;9.704;2023-02-05T16:44:26;29.07;;;21.10;;
27161;SDS011;54464;50.558;9.704;2023-02-05T16:47:05;29.87;;;20.73;;
27161;SDS011;54464;50.558;9.704;2023-02-05T16:49:35;28.17;;;20.23;;
27161;SDS011;54464;50.558;9.704;2023-02-05T16:52:01;28.83;;;20.30;;
27161;SDS011;54464;50.558;9.704;2023-02-05T16:54:29;31.60;;;21.93;;
27161;SDS011;54464;50.558;9.704;2023-02-05T16:57:02;31.00;;;21.53;;
27161;SDS011;54464;50.558;9.704;2023-02-05T16:59:45;30.20;;;20.40;;
27161;SDS011;54464;50.558;9.704;2023-02-05T17:04:50;36.87;;;22.93;;
27161;SDS011;54464;50.558;9.704;2023-02-05T17:07:18;34.03;;;22.30;;
27161;SDS011;54464;50.558;9.704;2023-02-05T17:09:45;34.33;;;22.80;;
27161;SDS011;54464;50.558;9.704;2023-02-05T17:14:53;34.43;;;22.13;;
27161;SDS011;54464;50.558;9.704;2023-02-05T17:17:20;35.10;;;22.97;;
27161;SDS011;54464;50.558;9.704;2023-02-05T17:22:29;43.47;;;25.70;;
27161;SDS011;54464;50.558;9.704;2023-02-05T17:24:56;58.90;;;32.77;;
27161;SDS011;54464;50.558;9.704;2023-02-05T17:27:37;50.40;;;30.77;;
27161;SDS011;54464;50.558;9.704;2023-02-05T17:30:04;38.40;;;26.40;;
27161;SDS011;54464;50.558;9.704;2023-02-05T17:32:35;36.83;;;25.67;;
27161;SDS011;54464;50.558;9.704;2023-02-05T17:35:01;36.30;;;23.87;;
27161;SDS011;54464;50.558;9.704;2023-02-05T17:37:35;42.40;;;29.60;;
27161;SDS011;54464;50.558;9.704;2023-02-05T17:40:01;40.77;;;28.90;;
27161;SDS011;54464;50.558;9.704;2023-02-05T17:42:26;43.07;;;28.67;;